Flight Track Log - Related Links

Times and Time Zones

All times are in EDT time to prevent confusion due to time zone crossing. See the N682RW flight status page for this flight to view local times or setup timezone preferences in your user account.

Time Position Orientation Groundspeed Altitude Reporting Facility
EDT Latitude Longitude Course Direction KTS MPH feet Rate Location/Type
Wed 02:12:31 AM 40.7000 -74.1667 13° North 170 196 700  Level New York TRACON
Wed 02:14:53 AM 40.8306 -74.1278 13° North 240 276 8,000 3,149 Climbing New York Center
Wed 02:15:53 AM 40.9211 -74.1653 343° North 288 331 11,300 2,976 Climbing New York Center
Wed 02:16:56 AM 41.0097 -74.2056 341° North 318 366 14,100 2,650 Climbing New York Center
Wed 02:17:53 AM 41.0961 -74.2375 344° North 349 402 16,600 2,695 Climbing New York Center
Wed 02:18:54 AM 41.2136 -74.2819 344° North 373 429 19,400 2,600 Climbing New York Center
Wed 02:19:53 AM 41.3167 -74.3150 346° North 380 437 21,800 2,300 Climbing New York Center
Wed 02:20:54 AM 41.4206 -74.3925 331° Northwest 399 459 24,000 2,050 Climbing New York Center
Wed 02:21:53 AM 41.4639 -74.5361 292° West 393 452 25,900 1,765 Climbing New York Center
Wed 02:22:53 AM 41.4947 -74.6789 286° West 412 474 27,500 1,600 Climbing New York Center
Wed 02:23:53 AM 41.5308 -74.8417 287° West 437 503 29,100 1,659 Climbing New York Center
Wed 02:24:56 AM 41.5669 -75.0019 287° West 452 520 30,900 1,700 Climbing New York Center
Wed 02:25:53 AM 41.6047 -75.1653 287° West 457 526 32,500 1,436 Climbing New York Center
Wed 02:26:53 AM 41.6403 -75.3286 286° West 457 526 33,700 738 Climbing New York Center
Wed 02:27:55 AM 41.6753 -75.4947 286° West 463 533 34,000 150 Climbing New York Center
Wed 02:28:53 AM 41.7122 -75.6614 287° West 463 533 34,000  Level New York Center
Wed 02:29:53 AM 41.7472 -75.8225 286° West 463 533 34,000  Level New York Center
Wed 02:30:53 AM 41.7817 -75.9864 286° West 463 533 34,000  Level New York Center
Wed 02:31:55 AM 41.8181 -76.1506 287° West 463 533 34,000  Level New York Center
Wed 02:32:55 AM 41.8503 -76.3147 285° West 463 533 34,000  Level New York Center
Wed 02:33:53 AM 41.8842 -76.4764 286° West 464 534 34,000  Level New York Center
Wed 02:34:55 AM 41.9197 -76.6439 286° West 464 534 34,000  Level New York Center
Wed 02:35:53 AM 41.9533 -76.8058 286° West 464 534 34,000  Level New York Center
Wed 02:36:54 AM 41.9867 -76.9681 286° West 459 528 34,000  Level New York Center
Wed 02:37:54 AM 42.0175 -77.1328 284° West 459 528 34,000  Level New York Center
Wed 02:38:54 AM 42.0503 -77.2953 285° West 459 528 34,000  Level New York Center
Wed 02:39:53 AM 42.0872 -77.4581 287° West 459 528 34,000  Level New York Center
Wed 02:40:56 AM 42.1269 -77.6356 287° West 464 534 34,000  Level New York Center
Wed 02:41:56 AM 42.1653 -77.8019 287° West 464 534 34,000  Level New York Center
Wed 02:43:00 AM 42.1932 -77.9553 284° West  Level FlightAware Approximate
Wed 02:50:00 AM 42.3715 -78.9651 284° West  Level FlightAware Approximate
Wed 02:51:00 AM 42.3962 -79.1098 283° West  Level FlightAware Approximate
Wed 02:52:00 AM 42.4208 -79.2546 283° West  Level FlightAware Approximate
Wed 02:53:00 AM 42.4451 -79.3996 283° West  Level FlightAware Approximate
Wed 02:54:00 AM 42.4693 -79.5446 283° West  Level FlightAware Approximate
Wed 02:55:00 AM 42.4933 -79.6898 283° West  Level FlightAware Approximate
Wed 02:56:00 AM 42.5172 -79.8351 283° West  Level FlightAware Approximate
Wed 02:57:00 AM 42.5408 -79.9805 282° West  Level FlightAware Approximate
Wed 02:58:00 AM 42.5643 -80.1260 282° West  Level FlightAware Approximate
Wed 02:59:00 AM 42.5876 -80.2716 282° West  Level FlightAware Approximate
Wed 03:00:00 AM 42.6098 -80.4182 281° West  Level FlightAware Approximate
Wed 03:01:00 AM 42.6432 -80.5596 291° West  Level FlightAware Approximate
Wed 03:02:00 AM 42.6674 -80.7048 281° West  Level FlightAware Approximate
Wed 03:03:00 AM 42.6917 -80.8501 289° West  Level FlightAware Approximate
Wed 03:04:00 AM 42.6902 -80.9964 260° West  Level FlightAware Approximate
Wed 03:05:00 AM 42.6718 -81.1436 260° West  Level FlightAware Approximate
Wed 03:06:00 AM 42.6533 -81.2906 260° West  Level FlightAware Approximate
Wed 03:07:00 AM 42.6297 -81.4361 262° West  Level FlightAware Approximate
Wed 03:08:00 AM 42.6151 -81.5838 263° West  Level FlightAware Approximate
Wed 03:09:00 AM 42.6017 -81.7318 263° West  Level FlightAware Approximate
Wed 03:10:00 AM 42.5853 -81.8791 261° West  Level FlightAware Approximate
Wed 03:11:00 AM 42.5683 -82.0263 261° West  Level FlightAware Approximate
Wed 03:12:00 AM 42.5512 -82.1735 261° West  Level FlightAware Approximate
Wed 03:13:00 AM 42.5275 -82.3188 257° West  Level FlightAware Approximate
Wed 03:14:00 AM 42.5085 -82.4651 260° West  Level FlightAware Approximate
Wed 03:15:00 AM 42.4803 -82.6082 243° Southwest  Level FlightAware Approximate
Wed 03:16:00 AM 42.4299 -82.7403 236° Southwest  Level FlightAware Approximate
Wed 03:17:00 AM 42.3825 -82.8693 246° West  Level FlightAware Approximate
Wed 03:18:00 AM 42.3373 -83.0046 246° West  Level FlightAware Approximate
Wed 03:19:00 AM 42.2834 -83.1332 246° West  Level FlightAware Approximate
Wed 03:20:00 AM 42.2390 -83.2665 246° West  Level FlightAware Approximate
Wed 03:21:00 AM 42.2000 -83.3500 236° Southwest  Level FlightAware Approximate
Wed 03:22:00 AM 42.2124 -83.3534 236° Southwest  Level Estimated
Wed 03:23:00 AM 42.2124 -83.3534 236° Southwest  Level Estimated
Wed 03:24:00 AM 42.2124 -83.3534 236° Southwest  Level Estimated
Wed 03:25:00 AM 42.2124 -83.3534 236° Southwest  Level Estimated
Wed 03:26:00 AM 42.2124 -83.3534 236° Southwest  Level Estimated
Wed 03:27:00 AM 42.2124 -83.3534 236° Southwest  Level Estimated
Wed 03:28:00 AM 42.2124 -83.3534 236° Southwest  Level Estimated
Wed 03:29:00 AM 42.2124 -83.3534 236° Southwest  Level Estimated
Wed 03:30:00 AM 42.2124 -83.3534 236° Southwest  Level Estimated
Wed 03:31:00 AM 42.2124 -83.3534 236° Southwest  Level Estimated
Wed 03:32:00 AM 42.2124 -83.3534 236° Southwest  Level Estimated
Wed 03:33:00 AM 42.2124 -83.3534 236° Southwest  Level Estimated
Wed 03:34:00 AM 42.2124 -83.3534 236° Southwest  Level Estimated
Wed 03:35:00 AM 42.2124 -83.3534 236° Southwest  Level Estimated
Wed 03:36:00 AM 42.2124 -83.3534 236° Southwest  Level Estimated
Wed 03:37:00 AM 42.2124 -83.3534 236° Southwest  Level Estimated
Wed 03:38:00 AM 42.2124 -83.3534 236° Southwest  Level Estimated

Login

Don't have an account? Register now (free) for customized features, flight alerts, and more!